Time;durP1;ratioP1;P1;durP2;ratioP2;P2;SDS_P1;SDS_P2;PMS_P1;PMS_P2;Temp;Humidity;BMP_temperature;BMP_pressure;BME280_temperature;BME280_humidity;BME280_pressure;Samples;Min_cycle;Max_cycle;Signal;HPM_P1;HPM_P2
2023/04/14 00:02:22;;;;;;;25.70;16.60;;;;;;;10.67;86.78;98175.64;79184;1297;3011942;-60
2023/04/14 00:04:52;;;;;;;17.40;10.10;;;;;;;10.48;88.07;98184.57;77946;1298;3049143;-60
2023/04/14 00:07:18;;;;;;;18.10;11.40;;;;;;;10.94;86.96;98185.55;79312;1297;3012801;-62
2023/04/14 00:09:50;;;;;;;20.60;11.90;;;;;;;11.44;85.15;98185.27;77993;1296;3049268;-61
2023/04/14 00:12:16;;;;;;;20.90;13.60;;;;;;;11.56;84.39;98184.32;79216;1301;3013406;-60
2023/04/14 00:14:43;;;;;;;24.10;15.90;;;;;;;11.26;84.56;98186.09;79253;1301;3014182;-61
2023/04/14 00:17:13;;;;;;;23.10;15.70;;;;;;;11.14;84.82;98184.16;77964;1301;3052252;-61
2023/04/14 00:19:40;;;;;;;22.80;15.10;;;;;;;10.92;85.58;98183.30;79207;1296;3013825;-61
2023/04/14 00:22:07;;;;;;;12.40;7.90;;;;;;;10.79;86.59;98187.71;79259;1298;3011815;-63
2023/04/14 00:24:42;;;;;;;11.80;8.00;;;;;;;11.19;85.50;98186.09;77934;1298;3049366;-59
2023/04/14 00:27:09;;;;;;;15.20;8.50;;;;;;;11.59;83.65;98190.15;79228;1300;3011872;-61
2023/04/14 00:29:38;;;;;;;11.00;7.80;;;;;;;11.67;83.51;98188.14;78124;1300;3053309;-60
2023/04/14 00:32:05;;;;;;;15.20;10.50;;;;;;;11.51;83.11;98187.55;79176;1301;3011516;-60
2023/04/14 00:34:32;;;;;;;15.30;10.50;;;;;;;11.12;84.29;98189.34;79224;1297;3011945;-61
2023/04/14 00:38:10;;;;;;;15.20;10.30;;;;;;;10.88;85.59;98189.40;79966;1299;3013273;-63
2023/04/14 00:40:37;;;;;;;8.50;6.00;;;;;;;10.58;87.17;98188.15;78884;1306;3013340;-59
2023/04/14 00:43:05;;;;;;;13.40;6.70;;;;;;;11.07;86.43;98190.52;78933;1299;3011954;-61
2023/04/14 00:45:38;;;;;;;9.80;6.90;;;;;;;11.45;84.29;98184.67;77960;1299;3051957;-59
2023/04/14 00:48:06;;;;;;;8.60;6.80;;;;;;;11.51;84.03;98190.52;79190;1301;3011607;-62
2023/04/14 00:50:33;;;;;;;13.90;8.40;;;;;;;11.20;84.11;98192.58;76044;1301;3051400;-60
2023/04/14 00:53:00;;;;;;;10.80;8.20;;;;;;;11.00;85.09;98188.62;79433;1295;3020833;-61
2023/04/14 00:55:27;;;;;;;9.20;7.90;;;;;;;10.73;86.21;98192.59;79267;1300;3011742;-61
2023/04/14 00:57:55;;;;;;;8.70;4.80;;;;;;;10.62;86.63;98190.27;78021;1298;3025928;-61
2023/04/14 01:00:22;;;;;;;6.90;5.20;;;;;;;10.80;87.17;98186.06;79478;1298;3013734;-61
2023/04/14 01:02:50;;;;;;;9.10;6.00;;;;;;;11.30;85.30;98191.21;79229;1296;3011697;-62
2023/04/14 01:05:20;;;;;;;8.30;6.20;;;;;;;11.23;84.99;98187.38;78097;1297;3050948;-59
2023/04/14 01:07:47;;;;;;;9.60;6.70;;;;;;;11.08;85.50;98183.35;79388;1295;3013413;-63
2023/04/14 01:10:14;;;;;;;7.70;6.20;;;;;;;10.77;86.67;98191.35;79398;1295;3011676;-63
2023/04/14 01:12:59;;;;;;;7.50;6.30;;;;;;;10.52;87.52;98189.89;78097;1298;3051928;-59
2023/04/14 01:15:33;;;;;;;4.30;3.50;;;;;;;10.41;88.75;98195.47;78150;1295;3052542;-60
2023/04/14 01:18:15;;;;;;;8.60;5.00;;;;;;;10.83;87.81;98195.46;79241;1294;3011906;-63
2023/04/14 01:20:45;;;;;;;6.80;5.40;;;;;;;11.24;85.87;98194.16;78025;1301;3068803;-61
2023/04/14 01:23:24;;;;;;;8.10;5.80;;;;;;;11.17;85.89;98194.00;79446;1295;3011989;-60
2023/04/14 01:26:18;;;;;;;9.40;6.90;;;;;;;10.94;86.65;98193.46;78213;1298;3057228;-60
2023/04/14 01:29:10;;;;;;;8.70;6.50;;;;;;;10.79;87.12;98190.86;78175;1295;3050152;-59
2023/04/14 01:31:52;;;;;;;10.00;7.40;;;;;;;10.58;87.70;98195.38;78160;1295;3053336;-61
2023/04/14 01:34:38;;;;;;;7.40;4.30;;;;;;;10.36;88.93;98194.98;78170;1298;3049498;-60
2023/04/14 01:37:18;;;;;;;7.50;5.90;;;;;;;10.97;87.73;98190.09;78157;1298;3052721;-61
2023/04/14 01:39:49;;;;;;;9.00;5.50;;;;;;;11.35;85.85;98192.20;78185;1298;3053029;-61
2023/04/14 01:42:18;;;;;;;10.00;7.80;;;;;;;11.26;85.35;98190.85;79271;1300;3013050;-61
2023/04/14 01:44:45;;;;;;;10.90;7.30;;;;;;;11.01;85.93;98187.97;78033;1299;3051134;-59
2023/04/14 01:47:12;;;;;;;12.70;7.90;;;;;;;10.82;86.77;98191.69;79368;1295;3013080;-62
2023/04/14 01:49:40;;;;;;;13.50;8.80;;;;;;;10.50;88.03;98193.30;79279;1295;3011887;-61
2023/04/14 01:52:09;;;;;;;10.10;6.30;;;;;;;10.31;88.82;98193.10;78043;1301;3049486;-61
2023/04/14 01:54:37;;;;;;;9.60;6.70;;;;;;;10.75;88.53;98197.27;79325;1300;3011253;-62
2023/04/14 01:57:07;;;;;;;11.00;6.70;;;;;;;11.18;86.03;98189.73;78085;1298;3052518;-60
2023/04/14 01:59:35;;;;;;;10.20;6.90;;;;;;;11.14;85.54;98191.48;79260;1296;3014570;-62
2023/04/14 02:02:03;;;;;;;9.00;6.90;;;;;;;10.94;86.05;98187.02;79347;1295;3011942;-63
2023/04/14 02:04:32;;;;;;;9.40;7.60;;;;;;;10.73;86.75;98188.85;78199;1298;3050453;-62
2023/04/14 02:06:59;;;;;;;20.10;10.10;;;;;;;10.41;88.03;98196.19;79130;1304;3013160;-62
2023/04/14 02:09:26;;;;;;;9.80;6.20;;;;;;;10.14;89.46;98200.36;79376;1295;3013000;-63
2023/04/14 02:11:55;;;;;;;14.20;8.70;;;;;;;10.68;87.99;98197.36;78105;1300;3053452;-60
2023/04/14 02:14:21;;;;;;;18.30;11.10;;;;;;;11.10;86.02;98196.52;79243;1298;3013075;-60
2023/04/14 02:16:48;;;;;;;18.80;11.90;;;;;;;11.20;84.83;98199.00;79227;1301;3013740;-61
2023/04/14 02:19:17;;;;;;;19.00;13.10;;;;;;;11.02;84.95;98202.30;78012;1297;3028320;-59
2023/04/14 02:21:45;;;;;;;15.00;9.70;;;;;;;10.86;85.68;98203.55;79434;1296;3012724;-61
2023/04/14 02:24:12;;;;;;;16.40;9.40;;;;;;;10.53;86.88;98214.83;79298;1298;3011885;-60
2023/04/14 02:27:09;;;;;;;8.00;4.90;;;;;;;10.38;87.65;98217.27;78221;1295;3052370;-61
2023/04/14 02:29:39;;;;;;;10.10;6.10;;;;;;;10.86;86.80;98209.23;78110;1294;3069108;-61
2023/04/14 02:32:10;;;;;;;9.90;6.10;;;;;;;11.13;85.01;98212.41;79325;1295;3013253;-61
2023/04/14 02:34:53;;;;;;;11.80;6.90;;;;;;;11.15;84.75;98211.56;78133;1299;3056704;-60
2023/04/14 02:37:25;;;;;;;15.20;7.70;;;;;;;10.96;84.87;98216.98;79253;1296;3013257;-61
2023/04/14 02:39:57;;;;;;;11.40;6.90;;;;;;;10.73;85.53;98210.98;78155;1295;3053498;-61
2023/04/14 02:42:25;;;;;;;12.90;7.90;;;;;;;10.35;87.21;98218.14;79333;1295;3011651;-60
2023/04/14 02:45:00;;;;;;;10.30;4.00;;;;;;;10.23;88.08;98223.27;78207;1298;3054337;-60
2023/04/14 02:47:37;;;;;;;9.70;5.20;;;;;;;10.81;87.04;98222.16;79255;1298;3011931;-62
2023/04/14 02:50:06;;;;;;;15.20;8.30;;;;;;;11.08;84.53;98225.42;78076;1301;3069178;-60
2023/04/14 02:52:34;;;;;;;17.10;7.60;;;;;;;10.84;85.49;98228.14;79250;1295;3014018;-62
2023/04/14 02:55:07;;;;;;;14.00;9.00;;;;;;;10.67;85.75;98230.84;78135;1301;3056075;-60
2023/04/14 02:57:34;;;;;;;16.40;9.90;;;;;;;10.37;86.32;98232.18;79189;1295;3014749;-60
2023/04/14 03:00:02;;;;;;;15.60;8.40;;;;;;;10.08;86.57;98232.84;79418;1296;3011606;-60
2023/04/14 03:02:32;;;;;;;9.40;4.40;;;;;;;9.87;87.52;98225.20;77981;1301;3052414;-59
2023/04/14 03:05:04;;;;;;;8.80;5.30;;;;;;;10.21;86.72;98232.05;79227;1300;3011712;-60
2023/04/14 03:07:52;;;;;;;10.30;5.80;;;;;;;10.50;85.03;98242.05;78142;1295;3069184;-59
2023/04/14 03:10:20;;;;;;;12.50;7.00;;;;;;;10.47;85.17;98241.92;79283;1295;3011693;-59
2023/04/14 03:12:51;;;;;;;13.30;7.50;;;;;;;10.37;85.82;98239.59;78853;1301;3011555;-59
2023/04/14 03:15:20;;;;;;;16.10;9.90;;;;;;;10.20;86.20;98240.70;79215;1295;3014655;-60
2023/04/14 03:17:52;;;;;;;24.80;13.00;;;;;;;9.93;87.24;98243.96;79334;1300;3011506;-61
2023/04/14 03:20:22;;;;;;;16.40;9.00;;;;;;;9.78;88.79;98247.43;77946;1304;3053114;-62
2023/04/14 03:23:04;;;;;;;20.00;10.50;;;;;;;10.33;87.92;98243.90;79344;1299;3013122;-61
2023/04/14 03:25:36;;;;;;;12.00;7.50;;;;;;;10.77;85.58;98245.84;78110;1300;3069499;-59
2023/04/14 03:28:06;;;;;;;12.40;8.00;;;;;;;10.68;85.18;98241.44;79234;1301;3013166;-60
2023/04/14 03:30:35;;;;;;;10.00;6.90;;;;;;;10.46;85.65;98242.19;78042;1300;3056059;-62
2023/04/14 03:33:06;;;;;;;8.60;6.90;;;;;;;10.19;86.44;98248.30;79392;1294;3011597;-60
2023/04/14 03:35:35;;;;;;;11.00;6.80;;;;;;;9.92;87.80;98257.72;78104;1298;3054038;-59
2023/04/14 03:38:07;;;;;;;7.90;4.60;;;;;;;9.81;89.10;98251.36;79355;1301;3013027;-63
2023/04/14 03:40:37;;;;;;;11.50;6.20;;;;;;;10.36;87.28;98258.86;78124;1299;3052744;-61
2023/04/14 03:43:06;;;;;;;7.70;5.50;;;;;;;10.64;85.56;98265.41;79298;1295;3011636;-62
2023/04/14 03:45:37;;;;;;;9.90;6.60;;;;;;;10.64;85.23;98266.33;78027;1301;3025887;-60
2023/04/14 03:48:06;;;;;;;9.00;6.50;;;;;;;10.35;86.05;98272.39;79274;1295;3011735;-61
2023/04/14 03:50:41;;;;;;;13.00;7.80;;;;;;;10.17;87.00;98279.79;77967;1295;3048388;-62
2023/04/14 03:53:09;;;;;;;11.90;7.50;;;;;;;10.00;87.38;98277.08;79151;1300;3013317;-62
2023/04/14 03:55:37;;;;;;;5.90;4.20;;;;;;;9.82;88.89;98279.61;78044;1301;3049695;-62
2023/04/14 03:58:13;;;;;;;6.50;5.20;;;;;;;10.38;88.25;98288.15;78090;1300;3052323;-61
2023/04/14 04:00:41;;;;;;;8.60;6.00;;;;;;;10.69;86.46;98281.50;79369;1298;3014717;-59
2023/04/14 04:03:09;;;;;;;10.80;7.20;;;;;;;10.61;86.22;98287.56;79214;1295;3013175;-60
2023/04/14 04:05:39;;;;;;;17.20;10.30;;;;;;;10.50;87.07;98283.91;77991;1295;3057060;-58
2023/04/14 04:08:05;;;;;;;15.40;9.50;;;;;;;10.25;87.19;98293.88;79208;1295;3013102;-59
2023/04/14 04:10:33;;;;;;;10.80;7.40;;;;;;;9.91;88.39;98291.55;79185;1295;3013455;-61
2023/04/14 04:13:01;;;;;;;6.60;4.20;;;;;;;9.64;90.12;98291.99;78192;1300;3051612;-62
2023/04/14 04:15:37;;;;;;;6.10;4.40;;;;;;;10.12;89.79;98294.98;78034;1301;3053280;-61
2023/04/14 04:18:05;;;;;;;7.40;5.30;;;;;;;10.35;88.19;98296.55;79296;1301;3013673;-63
2023/04/14 04:20:33;;;;;;;7.40;4.80;;;;;;;10.40;87.51;98293.94;79225;1300;3011675;-62
2023/04/14 04:23:01;;;;;;;7.80;5.60;;;;;;;10.16;88.17;98293.25;78055;1300;3048998;-62
2023/04/14 04:25:28;;;;;;;11.90;5.30;;;;;;;9.88;89.29;98300.73;79201;1295;3020808;-61
2023/04/14 04:28:02;;;;;;;10.30;6.10;;;;;;;9.57;90.61;98297.06;78092;1301;3051837;-61
2023/04/14 04:30:30;;;;;;;4.60;3.50;;;;;;;9.35;92.29;98302.05;79339;1300;3013861;-62
2023/04/14 04:33:00;;;;;;;5.90;3.90;;;;;;;9.93;91.41;98303.63;79332;1295;3011754;-60
2023/04/14 04:35:28;;;;;;;8.10;4.30;;;;;;;10.40;88.75;98304.80;77939;1295;3056071;-62
2023/04/14 04:37:55;;;;;;;7.80;4.80;;;;;;;10.35;87.62;98304.67;79176;1295;3013675;-60
2023/04/14 04:40:22;;;;;;;7.40;5.00;;;;;;;10.04;88.71;98306.34;79201;1298;3011516;-62
2023/04/14 04:42:51;;;;;;;10.90;5.50;;;;;;;9.93;89.12;98309.40;77997;1301;3053335;-60
2023/04/14 04:45:40;;;;;;;8.10;5.60;;;;;;;9.63;90.13;98313.76;79337;1299;3018461;-62
2023/04/14 04:48:09;;;;;;;8.90;4.10;;;;;;;9.36;91.56;98319.80;77998;1299;3051632;-62
2023/04/14 04:50:36;;;;;;;7.10;4.50;;;;;;;9.83;90.61;98316.48;79392;1295;3012952;-63
2023/04/14 04:53:12;;;;;;;6.30;4.50;;;;;;;10.04;88.87;98314.71;79362;1299;3011498;-63
2023/04/14 04:55:43;;;;;;;7.50;4.70;;;;;;;9.82;88.97;98316.16;78054;1301;3051601;-60
2023/04/14 04:58:10;;;;;;;6.40;5.00;;;;;;;9.74;89.78;98314.88;79310;1300;3013618;-63
2023/04/14 05:00:36;;;;;;;9.70;5.60;;;;;;;9.68;89.96;98315.30;79432;1300;3011592;-60
2023/04/14 05:03:20;;;;;;;4.80;3.60;;;;;;;9.52;91.07;98317.71;78075;1300;3051844;-62
2023/04/14 05:05:46;;;;;;;6.10;4.20;;;;;;;9.98;90.23;98311.11;79315;1295;3013105;-62
2023/04/14 05:08:13;;;;;;;7.20;4.80;;;;;;;10.34;87.76;98312.06;79250;1301;3014173;-59
2023/04/14 05:10:43;;;;;;;8.20;4.30;;;;;;;10.16;87.43;98318.55;78030;1301;3050157;-60
2023/04/14 05:13:10;;;;;;;9.10;5.40;;;;;;;9.96;88.09;98320.21;79381;1301;3013687;-63
2023/04/14 05:15:37;;;;;;;7.30;4.60;;;;;;;9.72;88.87;98323.10;79465;1299;3013606;-61
2023/04/14 05:18:08;;;;;;;9.90;5.10;;;;;;;9.54;89.43;98323.50;78127;1300;3051362;-63
2023/04/14 05:20:35;;;;;;;5.30;3.50;;;;;;;9.47;89.88;98331.38;79311;1295;3013465;-60
2023/04/14 05:23:02;;;;;;;9.50;4.50;;;;;;;9.84;89.26;98325.66;79362;1295;3012996;-63
2023/04/14 05:25:30;;;;;;;8.40;4.30;;;;;;;10.14;87.28;98329.65;77974;1300;3048828;-61
2023/04/14 05:27:57;;;;;;;7.20;4.40;;;;;;;10.06;86.76;98334.84;79391;1298;3012945;-63
2023/04/14 05:30:25;;;;;;;7.70;4.20;;;;;;;9.82;87.93;98333.83;79883;1301;3011426;-64
2023/04/14 05:32:54;;;;;;;8.30;4.40;;;;;;;9.65;88.58;98336.14;78168;1301;3050854;-63
2023/04/14 05:35:23;;;;;;;7.10;5.00;;;;;;;9.65;88.69;98336.02;79361;1296;3012045;-63
2023/04/14 05:37:52;;;;;;;4.30;2.40;;;;;;;9.32;90.25;98340.16;78824;1295;3011758;-62
2023/04/14 05:40:21;;;;;;;8.00;3.50;;;;;;;9.88;89.47;98343.69;79245;1300;3019086;-62
2023/04/14 05:42:51;;;;;;;5.00;3.30;;;;;;;10.26;86.32;98347.52;78125;1298;3052388;-62
2023/04/14 05:45:18;;;;;;;8.60;4.20;;;;;;;10.22;85.87;98343.08;79415;1299;3013571;-63
2023/04/14 05:47:46;;;;;;;7.10;3.70;;;;;;;10.10;86.10;98347.65;79288;1301;3011645;-62
2023/04/14 05:50:15;;;;;;;11.00;4.70;;;;;;;9.76;87.24;98348.30;77955;1300;3056846;-62
2023/04/14 05:52:42;;;;;;;7.90;4.00;;;;;;;9.57;88.46;98350.79;79303;1295;3013448;-63
2023/04/14 05:55:09;;;;;;;6.30;2.90;;;;;;;9.37;89.43;98355.89;79233;1310;3012128;-64
2023/04/14 05:57:37;;;;;;;5.30;3.50;;;;;;;9.74;88.90;98355.27;78122;1301;3052870;-62
2023/04/14 06:00:06;;;;;;;6.80;4.00;;;;;;;10.11;86.87;98350.41;79347;1301;3018602;-63
2023/04/14 06:02:43;;;;;;;8.00;4.20;;;;;;;10.06;86.65;98355.63;78109;1297;3051592;-62
2023/04/14 06:05:11;;;;;;;10.50;4.20;;;;;;;10.06;86.65;98361.98;79333;1295;3013161;-62
2023/04/14 06:07:40;;;;;;;8.10;4.80;;;;;;;9.73;87.42;98367.93;78749;1299;3011937;-62
2023/04/14 06:10:10;;;;;;;7.20;4.40;;;;;;;9.73;88.23;98373.17;79186;1301;3013234;-62
2023/04/14 06:12:40;;;;;;;5.30;2.90;;;;;;;9.82;87.85;98379.00;78021;1300;3049851;-63
2023/04/14 06:15:07;;;;;;;7.40;3.90;;;;;;;10.06;86.83;98383.86;79399;1301;3013158;-64
2023/04/14 06:17:34;;;;;;;6.20;3.80;;;;;;;10.40;85.22;98387.07;79366;1295;3013352;-63
2023/04/14 06:20:03;;;;;;;6.70;3.90;;;;;;;10.37;84.78;98381.15;78171;1300;3051770;-64
2023/04/14 06:22:31;;;;;;;8.70;4.30;;;;;;;10.20;85.21;98386.10;79451;1296;3012705;-63
2023/04/14 06:24:58;;;;;;;9.60;4.70;;;;;;;9.81;86.54;98389.34;79395;1296;3013084;-62
2023/04/14 06:27:26;;;;;;;8.90;4.50;;;;;;;9.71;87.44;98392.20;78216;1301;3049574;-64
2023/04/14 06:29:53;;;;;;;8.70;4.60;;;;;;;9.42;88.57;98395.92;79476;1299;3012740;-62
2023/04/14 06:32:20;;;;;;;5.40;2.80;;;;;;;9.31;89.85;98394.77;79468;1300;3011705;-63
2023/04/14 06:34:52;;;;;;;5.00;3.30;;;;;;;9.92;87.81;98395.02;78109;1301;3051485;-63
2023/04/14 06:37:20;;;;;;;6.00;4.00;;;;;;;10.43;85.56;98391.06;79310;1295;3013635;-61
2023/04/14 06:39:46;;;;;;;6.50;4.00;;;;;;;10.44;84.07;98392.90;79396;1295;3011414;-63
2023/04/14 06:42:14;;;;;;;5.30;4.10;;;;;;;10.16;85.10;98401.44;78102;1296;3050070;-63
2023/04/14 06:44:42;;;;;;;7.50;3.90;;;;;;;10.07;85.37;98404.95;79250;1301;3013792;-64
2023/04/14 06:47:08;;;;;;;6.70;4.40;;;;;;;9.68;86.58;98406.27;79210;1301;3011909;-63
2023/04/14 06:49:38;;;;;;;7.40;4.90;;;;;;;9.36;88.23;98417.82;78024;1299;3052426;-65
2023/04/14 06:52:06;;;;;;;9.10;3.80;;;;;;;9.23;89.07;98420.17;79309;1295;3014258;-64
2023/04/14 06:54:33;;;;;;;7.60;4.20;;;;;;;9.78;88.13;98416.35;79260;1295;3013258;-62
2023/04/14 06:57:01;;;;;;;7.10;4.30;;;;;;;10.29;85.51;98415.86;78230;1295;3048491;-64
2023/04/14 06:59:30;;;;;;;8.90;4.70;;;;;;;10.20;84.78;98422.48;79279;1301;3013544;-63
2023/04/14 07:02:00;;;;;;;9.80;5.10;;;;;;;10.20;85.03;98418.07;78788;1301;3013575;-63
2023/04/14 07:04:27;;;;;;;11.90;5.50;;;;;;;10.10;85.61;98426.23;79289;1298;3013198;-64
2023/04/14 07:06:58;;;;;;;10.00;6.10;;;;;;;9.93;85.91;98426.25;79275;1300;3013068;-64
2023/04/14 07:09:27;;;;;;;5.80;3.10;;;;;;;9.81;86.32;98429.04;78117;1298;3049555;-63
2023/04/14 07:11:55;;;;;;;9.40;3.60;;;;;;;10.21;85.61;98436.06;79355;1295;3013076;-63
2023/04/14 07:14:25;;;;;;;8.30;4.50;;;;;;;10.36;84.08;98437.55;78869;1297;3013296;-62
2023/04/14 07:16:57;;;;;;;8.50;5.00;;;;;;;10.23;84.66;98443.08;79281;1301;3011525;-64
2023/04/14 07:19:24;;;;;;;11.70;5.10;;;;;;;10.01;85.34;98440.73;78331;1298;3052648;-64
2023/04/14 07:21:51;;;;;;;9.50;5.10;;;;;;;9.80;86.81;98448.94;79397;1300;3013692;-64
2023/04/14 07:24:18;;;;;;;12.00;5.80;;;;;;;9.59;87.51;98451.14;79386;1300;3012006;-62
2023/04/14 07:26:46;;;;;;;5.20;3.30;;;;;;;9.62;88.05;98453.52;78027;1301;3028223;-64
2023/04/14 07:29:12;;;;;;;7.40;3.80;;;;;;;10.01;86.87;98450.67;79438;1302;3013381;-64
2023/04/14 07:31:39;;;;;;;7.40;4.40;;;;;;;10.44;85.01;98444.90;79270;1298;3011537;-63
2023/04/14 07:34:07;;;;;;;7.60;4.30;;;;;;;10.26;84.47;98449.70;78014;1301;3028465;-63
2023/04/14 07:36:34;;;;;;;9.30;4.80;;;;;;;10.17;84.27;98449.15;79456;1301;3020829;-63
2023/04/14 07:39:00;;;;;;;8.60;4.60;;;;;;;9.98;85.48;98450.55;79282;1301;3011698;-63
2023/04/14 07:41:28;;;;;;;6.20;4.60;;;;;;;9.72;86.47;98455.96;78107;1301;3028671;-61
2023/04/14 07:43:56;;;;;;;6.40;2.40;;;;;;;9.65;87.74;98453.68;79223;1298;3013026;-66
2023/04/14 07:46:23;;;;;;;3.90;2.90;;;;;;;9.94;87.05;98443.69;79186;1298;3011534;-63
2023/04/14 07:48:51;;;;;;;5.10;3.30;;;;;;;10.13;85.10;98449.95;77986;1301;3052914;-62
2023/04/14 07:51:22;;;;;;;6.30;3.00;;;;;;;10.00;85.47;98453.43;79098;1300;3011670;-63
2023/04/14 07:53:52;;;;;;;5.30;3.40;;;;;;;9.81;85.94;98462.85;77962;1301;3025904;-63
2023/04/14 07:56:18;;;;;;;6.30;3.60;;;;;;;9.71;86.65;98462.13;79204;1296;3012805;-60
2023/04/14 07:58:45;;;;;;;4.80;3.50;;;;;;;9.42;87.51;98466.38;79265;1295;3014127;-63
2023/04/14 08:01:14;;;;;;;3.30;2.30;;;;;;;9.46;88.43;98469.68;78080;1301;3050250;-63
2023/04/14 08:03:41;;;;;;;4.40;2.50;;;;;;;10.04;86.97;98467.77;79358;1299;3011500;-62
2023/04/14 08:06:08;;;;;;;7.90;3.30;;;;;;;10.35;84.61;98468.25;79196;1301;3011506;-63
2023/04/14 08:08:38;;;;;;;7.90;3.20;;;;;;;10.26;84.28;98468.80;78036;1301;3051936;-63
2023/04/14 08:11:05;;;;;;;7.10;3.30;;;;;;;10.12;84.56;98475.73;79375;1295;3013352;-61
2023/04/14 08:13:31;;;;;;;6.70;3.60;;;;;;;9.88;85.83;98481.89;79111;1299;3011679;-63
2023/04/14 08:16:04;;;;;;;6.30;4.20;;;;;;;9.68;86.90;98482.67;77954;1300;3050428;-64
2023/04/14 08:18:32;;;;;;;5.40;3.20;;;;;;;9.71;87.10;98486.46;79328;1298;3013111;-64
2023/04/14 08:20:58;;;;;;;3.10;1.90;;;;;;;9.47;87.68;98487.48;79291;1301;3013670;-63
2023/04/14 08:23:28;;;;;;;2.90;2.10;;;;;;;9.93;87.09;98486.98;78027;1302;3050450;-64
2023/04/14 08:25:55;;;;;;;5.90;2.70;;;;;;;10.44;84.57;98489.14;79349;1296;3013508;-63
2023/04/14 08:28:21;;;;;;;5.30;3.00;;;;;;;10.54;83.64;98485.41;79436;1295;3011860;-65
2023/04/14 08:30:49;;;;;;;4.00;3.10;;;;;;;10.52;83.78;98487.88;78310;1300;3050100;-64
2023/04/14 08:33:17;;;;;;;4.80;3.30;;;;;;;10.06;85.01;98493.73;79362;1297;3013593;-64
2023/04/14 08:35:44;;;;;;;8.60;3.90;;;;;;;9.93;86.06;98495.57;79249;1300;3011806;-61
2023/04/14 08:38:12;;;;;;;6.10;3.40;;;;;;;9.91;85.85;98498.50;78135;1301;3051952;-63
2023/04/14 08:40:40;;;;;;;2.60;2.00;;;;;;;9.70;86.78;98495.08;79405;1296;3013549;-63
2023/04/14 08:43:07;;;;;;;2.80;2.20;;;;;;;10.43;85.69;98489.58;79214;1296;3012811;-64
2023/04/14 08:45:37;;;;;;;6.10;3.10;;;;;;;10.84;83.02;98486.96;77920;1301;3049948;-63
2023/04/14 08:48:04;;;;;;;6.70;4.00;;;;;;;10.93;82.12;98493.18;79198;1301;3013670;-63
2023/04/14 08:50:35;;;;;;;5.80;3.90;;;;;;;10.54;82.61;98491.71;79177;1301;3011653;-62
2023/04/14 08:53:06;;;;;;;6.70;4.10;;;;;;;10.32;84.14;98496.19;77967;1301;3051761;-64
2023/04/14 08:55:33;;;;;;;6.40;4.90;;;;;;;10.10;84.35;98499.58;79269;1298;3012947;-63
2023/04/14 08:58:02;;;;;;;5.10;4.10;;;;;;;9.97;85.32;98499.45;78615;1302;3013135;-63
2023/04/14 09:00:32;;;;;;;3.00;2.00;;;;;;;9.95;86.30;98498.20;79264;1301;3011939;-63
2023/04/14 09:03:16;;;;;;;9.70;4.10;;;;;;;10.67;83.65;98493.01;78077;1299;3049599;-64
2023/04/14 09:05:42;;;;;;;4.80;3.40;;;;;;;11.25;80.82;98487.52;79268;1301;3013484;-64
2023/04/14 09:08:10;;;;;;;7.00;3.60;;;;;;;11.35;79.58;98494.25;79286;1298;3011415;-63
2023/04/14 09:10:42;;;;;;;6.10;3.70;;;;;;;11.27;79.57;98498.73;78071;1301;3050722;-62
2023/04/14 09:13:10;;;;;;;7.10;4.30;;;;;;;11.06;79.72;98497.71;79304;1301;3011819;-62
2023/04/14 09:15:38;;;;;;;7.10;3.70;;;;;;;10.96;80.00;98502.69;78132;1299;3026833;-63
2023/04/14 09:18:08;;;;;;;9.90;5.10;;;;;;;10.59;80.96;98507.29;79348;1296;3011439;-63
2023/04/14 09:20:37;;;;;;;9.10;5.90;;;;;;;10.30;82.15;98508.96;78080;1301;3026001;-63
2023/04/14 09:23:03;;;;;;;8.70;4.40;;;;;;;10.24;83.18;98511.81;79213;1301;3019149;-63
2023/04/14 09:25:31;;;;;;;11.90;6.90;;;;;;;10.84;82.71;98510.98;79159;1298;3013041;-63
2023/04/14 09:28:00;;;;;;;13.40;6.50;;;;;;;11.14;80.63;98507.13;78052;1301;3053968;-62
2023/04/14 09:30:27;;;;;;;12.80;6.60;;;;;;;10.94;80.55;98514.77;79412;1301;3013094;-63
2023/04/14 09:33:05;;;;;;;10.30;5.20;;;;;;;10.77;81.94;98523.13;78829;1301;3011661;-63
2023/04/14 09:35:46;;;;;;;12.50;3.80;;;;;;;10.22;83.42;98535.41;78749;1295;3011965;-63
2023/04/14 09:38:15;;;;;;;7.10;3.30;;;;;;;9.97;85.58;98538.27;77978;1299;3053391;-63
2023/04/14 09:40:43;;;;;;;4.90;3.00;;;;;;;9.93;86.12;98539.77;79526;1301;3012741;-63
2023/04/14 09:43:24;;;;;;;3.60;1.60;;;;;;;9.76;86.77;98544.11;78942;1300;3011829;-60
2023/04/14 09:46:03;;;;;;;4.20;1.80;;;;;;;10.32;85.28;98542.70;78037;1301;3053509;-62
2023/04/14 09:48:33;;;;;;;2.30;1.60;;;;;;;10.72;83.64;98538.04;78708;1300;3011752;-61
2023/04/14 09:51:02;;;;;;;2.90;1.90;;;;;;;10.68;84.14;98540.07;79282;1301;3012972;-62
2023/04/14 09:53:32;;;;;;;3.80;2.30;;;;;;;10.70;84.06;98543.02;78706;1296;3011609;-63
2023/04/14 09:56:04;;;;;;;6.80;2.40;;;;;;;10.55;85.28;98544.34;79353;1296;3013005;-63
2023/04/14 09:58:41;;;;;;;4.20;2.30;;;;;;;10.43;86.26;98550.32;78026;1295;3049432;-63
2023/04/14 10:01:13;;;;;;;2.30;1.20;;;;;;;10.29;87.10;98556.73;77989;1298;3051292;-63
2023/04/14 10:03:45;;;;;;;2.50;1.70;;;;;;;10.89;85.93;98551.61;79359;1301;3012897;-62
2023/04/14 10:06:19;;;;;;;3.00;1.80;;;;;;;11.22;83.57;98556.42;78048;1301;3052675;-62
2023/04/14 10:08:47;;;;;;;4.00;2.10;;;;;;;11.06;83.21;98557.13;79197;1301;3011873;-64
2023/04/14 10:11:26;;;;;;;3.10;2.20;;;;;;;11.03;83.74;98562.81;78057;1299;3068149;-63
2023/04/14 10:14:05;;;;;;;2.90;1.90;;;;;;;10.69;84.15;98567.83;78082;1301;3051166;-63
2023/04/14 10:16:35;;;;;;;5.00;2.50;;;;;;;10.53;84.68;98574.64;78043;1302;3056723;-62
2023/04/14 10:19:01;;;;;;;5.10;2.60;;;;;;;10.27;85.93;98579.17;79250;1296;3012677;-62
2023/04/14 10:21:30;;;;;;;1.70;1.50;;;;;;;10.18;87.65;98578.38;79206;1301;3011878;-62
2023/04/14 10:23:58;;;;;;;2.10;1.40;;;;;;;10.85;86.58;98577.30;78019;1301;3052864;-62
2023/04/14 10:26:25;;;;;;;2.30;1.80;;;;;;;11.35;83.47;98575.63;79170;1304;3012850;-62
2023/04/14 10:28:53;;;;;;;5.90;2.40;;;;;;;11.25;82.61;98581.77;79245;1301;3013256;-62
2023/04/14 10:31:37;;;;;;;4.10;2.50;;;;;;;10.99;82.88;98581.91;77979;1300;3056405;-62
2023/04/14 10:34:08;;;;;;;4.80;3.20;;;;;;;10.82;83.78;98586.30;78017;1300;3049517;-63
2023/04/14 10:36:35;;;;;;;4.60;2.90;;;;;;;10.68;84.81;98588.02;79388;1297;3013678;-63
2023/04/14 10:39:05;;;;;;;5.40;3.00;;;;;;;10.64;85.32;98589.90;78862;1301;3013263;-62
2023/04/14 10:41:42;;;;;;;5.30;1.80;;;;;;;10.66;85.86;98595.37;79282;1310;3011837;-63
2023/04/14 10:44:30;;;;;;;4.10;2.20;;;;;;;11.39;84.78;98594.55;78124;1302;3053037;-62
2023/04/14 10:47:00;;;;;;;4.40;2.50;;;;;;;11.94;81.73;98599.40;78182;1300;3070044;-62
2023/04/14 10:49:30;;;;;;;4.10;3.20;;;;;;;12.01;81.49;98600.73;79344;1301;3012215;-64
2023/04/14 10:51:59;;;;;;;5.60;3.30;;;;;;;11.61;80.98;98598.34;78159;1296;3056052;-62
2023/04/14 10:54:27;;;;;;;6.40;3.40;;;;;;;11.56;81.26;98603.07;79352;1299;3011592;-62
2023/04/14 10:57:14;;;;;;;6.20;3.50;;;;;;;11.45;81.72;98604.11;78928;1301;3012030;-62
2023/04/14 10:59:43;;;;;;;4.80;3.60;;;;;;;11.50;82.00;98607.05;78143;1300;3051224;-62
2023/04/14 11:02:30;;;;;;;3.80;1.90;;;;;;;11.53;81.93;98610.34;79323;1301;3011517;-63
2023/04/14 11:05:10;;;;;;;4.90;2.40;;;;;;;12.08;80.42;98613.73;78038;1300;3053167;-62
2023/04/14 11:07:46;;;;;;;4.10;2.00;;;;;;;12.68;78.58;98621.55;78073;1309;3069209;-63
2023/04/14 11:10:15;;;;;;;4.60;2.70;;;;;;;12.71;77.76;98621.48;78704;1302;3011794;-63
2023/04/14 11:12:42;;;;;;;4.10;2.60;;;;;;;12.51;77.76;98628.70;79298;1301;3012910;-63
2023/04/14 11:15:15;;;;;;;4.10;3.20;;;;;;;12.24;78.55;98629.17;78749;1296;3011784;-60
2023/04/14 11:17:42;;;;;;;4.70;2.70;;;;;;;11.90;78.54;98632.55;79300;1295;3013107;-62
2023/04/14 11:20:19;;;;;;;4.70;3.00;;;;;;;11.64;79.05;98634.52;79210;1299;3013870;-61
2023/04/14 11:22:50;;;;;;;4.90;3.30;;;;;;;11.40;80.28;98638.15;78140;1309;3053296;-62
2023/04/14 11:25:18;;;;;;;2.70;1.80;;;;;;;11.25;81.69;98641.40;79415;1301;3011810;-62
2023/04/14 11:27:47;;;;;;;4.00;2.20;;;;;;;11.82;80.99;98639.97;78764;1302;3011893;-62
2023/04/14 11:30:16;;;;;;;3.80;2.30;;;;;;;12.51;78.89;98641.00;79413;1299;3013318;-63
2023/04/14 11:32:51;;;;;;;6.00;4.00;;;;;;;12.71;77.56;98644.25;79232;1297;3011576;-62